createdAt,value
2019-01-04T00:00:16.436Z,6.60
2019-01-04T00:02:42.478Z,6.10
2019-01-04T00:05:09.403Z,6.23
2019-01-04T00:07:35.732Z,6.13
2019-01-04T00:10:02.595Z,6.40
2019-01-04T00:12:28.628Z,6.20
2019-01-04T00:14:54.980Z,7.07
2019-01-04T00:17:21.036Z,8.00
2019-01-04T00:19:47.097Z,6.90
2019-01-04T00:22:13.138Z,8.33
2019-01-04T00:24:39.172Z,6.90
2019-01-04T00:27:05.232Z,7.73
2019-01-04T00:29:31.273Z,10.20
2019-01-04T00:31:57.324Z,7.40
2019-01-04T00:34:23.364Z,6.77
2019-01-04T00:36:49.428Z,7.30
2019-01-04T00:39:15.472Z,5.53
2019-01-04T00:41:41.504Z,8.33
2019-01-04T00:44:07.821Z,6.60
2019-01-04T00:46:34.257Z,7.63
2019-01-04T00:49:00.603Z,6.57
2019-01-04T00:51:26.723Z,7.67
2019-01-04T00:53:52.764Z,8.17
2019-01-04T00:56:28.416Z,8.30
2019-01-04T00:59:13.435Z,8.03
2019-01-04T01:02:02.042Z,6.77
2019-01-04T01:04:48.843Z,11.17
2019-01-04T01:07:24.756Z,7.93
2019-01-04T01:10:04.199Z,8.37
2019-01-04T01:12:50.707Z,7.63
2019-01-04T01:15:40.179Z,9.47
2019-01-04T01:18:19.207Z,7.93
2019-01-04T01:21:19.756Z,8.40
2019-01-04T01:24:01.445Z,6.17
2019-01-04T01:26:34.413Z,6.23
2019-01-04T01:29:32.183Z,7.13
2019-01-04T01:32:35.792Z,6.10
2019-01-04T01:35:23.735Z,9.93
2019-01-04T01:38:02.952Z,9.23
2019-01-04T01:40:42.019Z,7.07
2019-01-04T01:43:14.639Z,7.40
2019-01-04T01:46:10.927Z,7.77
2019-01-04T01:48:40.767Z,6.87
2019-01-04T01:51:17.080Z,7.00
2019-01-04T01:53:43.503Z,7.20
2019-01-04T01:56:09.918Z,5.90
2019-01-04T01:58:36.307Z,8.53
2019-01-04T02:01:02.339Z,7.73
2019-01-04T02:03:28.385Z,7.27
2019-01-04T02:05:54.453Z,8.47
2019-01-04T02:08:20.495Z,6.50
2019-01-04T02:10:46.538Z,7.20
2019-01-04T02:13:12.847Z,6.70
2019-01-04T02:15:38.892Z,8.87
2019-01-04T02:18:04.931Z,6.80
2019-01-04T02:20:30.979Z,8.63
2019-01-04T02:22:57.026Z,8.73
2019-01-04T02:25:23.060Z,6.47
2019-01-04T02:27:49.667Z,7.03
2019-01-04T02:30:15.708Z,6.60
2019-01-04T02:32:41.741Z,8.80
2019-01-04T02:35:07.820Z,7.33
2019-01-04T02:37:33.996Z,7.80
2019-01-04T02:40:00.024Z,8.60
2019-01-04T02:42:26.357Z,6.37
2019-01-04T02:44:52.398Z,7.07
2019-01-04T02:47:18.439Z,8.63
2019-01-04T02:49:44.805Z,6.30
2019-01-04T02:52:11.128Z,10.23
2019-01-04T02:54:37.172Z,6.90
2019-01-04T02:57:03.622Z,8.77
2019-01-04T02:59:29.918Z,9.53
2019-01-04T03:01:57.869Z,8.00
2019-01-04T03:04:23.957Z,8.03
2019-01-04T03:06:49.995Z,6.77
2019-01-04T03:09:16.039Z,6.80
2019-01-04T03:11:42.529Z,8.33
2019-01-04T03:14:08.570Z,7.17
2019-01-04T03:16:34.940Z,7.67
2019-01-04T03:19:01.272Z,9.57
2019-01-04T03:21:27.603Z,8.87
2019-01-04T03:23:53.646Z,7.03
2019-01-04T03:26:19.700Z,6.53
2019-01-04T03:28:45.754Z,6.60
2019-01-04T03:31:11.794Z,8.43
2019-01-04T03:33:37.848Z,6.33
2019-01-04T03:36:03.894Z,6.10
2019-01-04T03:38:29.947Z,6.37
2019-01-04T03:40:56.303Z,10.13
2019-01-04T03:43:22.589Z,10.90
2019-01-04T03:45:48.967Z,8.43
2019-01-04T03:48:15.004Z,6.80
2019-01-04T03:50:41.045Z,6.33
2019-01-04T03:53:07.686Z,6.70
2019-01-04T03:55:33.720Z,6.07
2019-01-04T03:58:00.098Z,7.27
2019-01-04T04:00:26.151Z,6.17
2019-01-04T04:02:52.203Z,6.93
2019-01-04T04:05:18.237Z,9.37
2019-01-04T04:07:44.299Z,6.57
2019-01-04T04:10:10.336Z,7.67
2019-01-04T04:12:36.389Z,6.53
2019-01-04T04:15:03.241Z,7.00
2019-01-04T04:17:29.364Z,7.57
2019-01-04T04:19:55.399Z,6.83
2019-01-04T04:22:21.463Z,8.67
2019-01-04T04:24:47.491Z,7.33
2019-01-04T04:27:13.532Z,7.47
2019-01-04T04:29:39.932Z,7.33
2019-01-04T04:32:05.969Z,8.37
2019-01-04T04:34:32.030Z,9.97
2019-01-04T04:36:58.411Z,7.30
2019-01-04T04:39:24.455Z,8.97
2019-01-04T04:41:50.766Z,7.97
2019-01-04T04:44:16.795Z,8.43
2019-01-04T04:46:42.845Z,8.87
2019-01-04T04:49:08.891Z,8.27
2019-01-04T04:51:35.268Z,8.47
2019-01-04T04:54:01.642Z,8.50
2019-01-04T04:56:27.675Z,8.10
2019-01-04T04:58:53.720Z,8.40
2019-01-04T05:01:20.083Z,9.30
2019-01-04T05:03:46.408Z,8.77
2019-01-04T05:06:12.778Z,8.93
2019-01-04T05:08:38.824Z,9.57
2019-01-04T05:11:04.869Z,9.97
2019-01-04T05:13:30.921Z,10.40
2019-01-04T05:15:56.961Z,10.03
2019-01-04T05:18:23.370Z,10.83
2019-01-04T05:20:49.409Z,8.73
2019-01-04T05:23:15.465Z,11.37
2019-01-04T05:25:41.841Z,9.33
2019-01-04T05:28:07.960Z,9.70
2019-01-04T05:30:34.336Z,9.60
2019-01-04T05:33:00.473Z,9.67
2019-01-04T05:35:26.861Z,10.27
2019-01-04T05:37:52.909Z,10.70
2019-01-04T05:40:18.945Z,11.60
2019-01-04T05:42:45.335Z,10.90
2019-01-04T05:45:11.372Z,10.83
2019-01-04T05:47:37.430Z,10.93
2019-01-04T05:50:04.777Z,11.03
2019-01-04T05:52:31.104Z,10.93
2019-01-04T05:54:57.239Z,13.53
2019-01-04T05:57:23.364Z,10.10
2019-01-04T05:59:49.440Z,11.03
2019-01-04T06:02:15.480Z,11.10
2019-01-04T06:04:41.796Z,10.80
2019-01-04T06:07:07.833Z,10.47
2019-01-04T06:09:33.877Z,10.77
2019-01-04T06:12:00.267Z,10.03
2019-01-04T06:14:26.303Z,11.37
2019-01-04T06:16:52.625Z,10.43
2019-01-04T06:19:18.680Z,13.23
2019-01-04T06:21:44.717Z,10.73
2019-01-04T06:24:11.039Z,10.77
2019-01-04T06:26:37.083Z,10.73
2019-01-04T06:29:03.120Z,9.63
2019-01-04T06:31:29.443Z,10.70
2019-01-04T06:33:55.481Z,10.47
2019-01-04T06:36:21.520Z,10.60
2019-01-04T06:38:47.857Z,12.73
2019-01-04T06:41:14.198Z,11.30
2019-01-04T06:43:40.248Z,10.53
2019-01-04T06:46:06.648Z,10.70
2019-01-04T06:48:32.700Z,11.07
2019-01-04T06:50:58.745Z,11.03
2019-01-04T06:53:24.778Z,11.00
2019-01-04T06:55:51.759Z,11.13
2019-01-04T06:58:17.800Z,10.97
2019-01-04T07:00:44.125Z,10.63
2019-01-04T07:03:10.179Z,10.73
2019-01-04T07:05:36.232Z,11.23
2019-01-04T07:08:02.472Z,11.17
2019-01-04T07:10:28.556Z,11.03
2019-01-04T07:12:54.609Z,11.10
2019-01-04T07:15:20.656Z,13.13
2019-01-04T07:17:47.302Z,11.57
2019-01-04T07:20:13.531Z,12.40
2019-01-04T07:22:39.590Z,11.97
2019-01-04T07:25:05.648Z,12.07
2019-01-04T07:27:31.698Z,11.40
2019-01-04T07:29:57.735Z,14.20
2019-01-04T07:32:23.791Z,12.90
2019-01-04T07:34:49.847Z,11.63
2019-01-04T07:37:16.200Z,13.03
2019-01-04T07:39:42.264Z,12.70
2019-01-04T07:42:08.308Z,11.63
2019-01-04T07:44:34.348Z,14.10
2019-01-04T07:47:00.704Z,11.93
2019-01-04T07:49:26.757Z,11.83
2019-01-04T07:51:52.798Z,12.57
2019-01-04T07:54:18.857Z,14.03
2019-01-04T07:56:44.905Z,12.23
2019-01-04T07:59:11.332Z,12.97
2019-01-04T08:01:37.389Z,13.97
2019-01-04T08:04:03.427Z,13.27
2019-01-04T08:06:29.479Z,14.07
2019-01-04T08:08:55.542Z,13.13
2019-01-04T08:11:21.592Z,15.20
2019-01-04T08:13:47.641Z,14.07
2019-01-04T08:16:13.698Z,14.43
2019-01-04T08:18:39.749Z,13.10
2019-01-04T08:21:05.783Z,14.00
2019-01-04T08:23:31.851Z,12.57
2019-01-04T08:25:57.892Z,13.90
2019-01-04T08:28:23.948Z,12.90
2019-01-04T08:30:50.354Z,12.10
2019-01-04T08:33:16.883Z,11.67
2019-01-04T08:35:42.935Z,13.83
2019-01-04T08:38:08.977Z,12.10
2019-01-04T08:40:35.026Z,11.63
2019-01-04T08:43:01.078Z,11.27
2019-01-04T08:45:27.411Z,9.70
2019-01-04T08:47:53.488Z,9.33
2019-01-04T08:50:19.615Z,10.37
2019-01-04T08:52:45.985Z,13.73
2019-01-04T08:55:12.024Z,9.40
2019-01-04T08:57:38.067Z,9.87
2019-01-04T09:00:08.255Z,8.60
2019-01-04T09:02:34.299Z,9.53
2019-01-04T09:05:00.336Z,8.17
2019-01-04T09:07:26.656Z,11.47
2019-01-04T09:09:52.965Z,8.03
2019-01-04T09:12:19.292Z,6.97
2019-01-04T09:14:45.660Z,7.97
2019-01-04T09:17:11.723Z,6.67
2019-01-04T09:19:38.089Z,8.87
2019-01-04T09:22:04.133Z,7.73
2019-01-04T09:24:30.160Z,7.63
2019-01-04T09:26:56.552Z,6.67
2019-01-04T09:29:22.592Z,6.67
2019-01-04T09:31:51.573Z,7.70
2019-01-04T09:34:17.633Z,7.80
2019-01-04T09:36:43.682Z,7.93
2019-01-04T09:39:09.887Z,8.73
2019-01-04T09:41:36.131Z,9.87
2019-01-04T09:44:02.678Z,7.97
2019-01-04T09:46:28.732Z,10.13
2019-01-04T09:48:54.772Z,9.93
2019-01-04T09:51:20.853Z,11.07
2019-01-04T09:53:46.972Z,14.67
2019-01-04T09:56:13.016Z,11.07
2019-01-04T09:58:39.075Z,12.63
2019-01-04T10:01:05.132Z,12.30
2019-01-04T10:03:31.175Z,15.43
2019-01-04T10:05:57.211Z,13.70
2019-01-04T10:08:23.269Z,17.00
2019-01-04T10:10:49.576Z,14.27
2019-01-04T10:13:15.616Z,14.63
2019-01-04T10:15:41.675Z,13.10
2019-01-04T10:18:08.586Z,14.97
2019-01-04T10:20:34.900Z,11.50
2019-01-04T10:23:00.951Z,12.77
2019-01-04T10:25:26.988Z,14.80
2019-01-04T10:27:53.381Z,16.83
2019-01-04T10:30:22.675Z,15.50
2019-01-04T10:32:49.052Z,16.20
2019-01-04T10:35:15.609Z,13.47
2019-01-04T10:37:41.645Z,16.63
2019-01-04T10:40:11.065Z,13.13
2019-01-04T10:42:35.647Z,14.97
2019-01-04T10:45:02.691Z,13.40
2019-01-04T10:47:28.744Z,15.47
2019-01-04T10:49:54.788Z,17.93
2019-01-04T10:52:20.827Z,19.20
2019-01-04T10:54:46.905Z,19.67
2019-01-04T10:57:12.948Z,22.50
2019-01-04T10:59:38.999Z,22.30
2019-01-04T11:02:05.043Z,28.23
2019-01-04T11:04:31.102Z,25.90
2019-01-04T11:06:57.161Z,27.67
2019-01-04T11:09:23.211Z,28.47
2019-01-04T11:11:49.251Z,31.00
2019-01-04T11:14:15.601Z,31.03
2019-01-04T11:16:41.661Z,30.03
2019-01-04T11:19:07.960Z,35.10
2019-01-04T11:21:34.292Z,34.77
2019-01-04T11:24:04.136Z,29.77
2019-01-04T11:26:33.688Z,31.03
2019-01-04T11:29:09.315Z,31.43
2019-01-04T11:31:39.167Z,32.17
2019-01-04T11:34:21.472Z,32.23
2019-01-04T11:37:07.871Z,31.43
2019-01-04T11:39:54.971Z,31.17
2019-01-04T11:42:24.824Z,31.43
2019-01-04T11:45:00.551Z,32.00
2019-01-04T11:48:01.191Z,26.97
2019-01-04T11:50:43.170Z,28.07
2019-01-04T11:53:12.207Z,26.40
2019-01-04T11:55:38.245Z,32.50
2019-01-04T11:58:04.631Z,29.90
2019-01-04T12:00:30.668Z,27.73
2019-01-04T12:02:56.730Z,30.40
2019-01-04T12:05:22.777Z,30.53
2019-01-04T12:07:48.817Z,29.23
2019-01-04T12:10:14.876Z,26.60
2019-01-04T12:12:40.926Z,26.43
2019-01-04T12:15:06.964Z,29.50
2019-01-04T12:17:33.033Z,29.17
2019-01-04T12:19:59.072Z,22.97
2019-01-04T12:22:25.417Z,25.77
2019-01-04T12:24:51.459Z,28.57
2019-01-04T12:27:17.501Z,22.97
2019-01-04T12:29:43.628Z,22.37
2019-01-04T12:32:09.985Z,24.87
2019-01-04T12:34:36.012Z,22.67
2019-01-04T12:37:02.088Z,20.60
2019-01-04T12:39:28.176Z,22.67
2019-01-04T12:41:54.217Z,22.20
2019-01-04T12:44:20.373Z,20.70
2019-01-04T12:46:46.407Z,17.53
2019-01-04T12:49:12.753Z,16.00
2019-01-04T12:51:39.094Z,22.90
2019-01-04T12:54:05.136Z,18.50
2019-01-04T12:56:31.171Z,19.27
2019-01-04T12:58:57.225Z,18.90
2019-01-04T13:01:23.271Z,16.23
2019-01-04T13:03:49.616Z,19.63
2019-01-04T13:06:15.663Z,16.60
2019-01-04T13:08:41.708Z,17.20
2019-01-04T13:11:07.758Z,23.63
2019-01-04T13:13:33.807Z,18.60
2019-01-04T13:15:59.848Z,17.97
2019-01-04T13:18:25.904Z,17.37
2019-01-04T13:20:51.963Z,14.83
2019-01-04T13:23:18.005Z,14.80
2019-01-04T13:25:44.044Z,15.93
2019-01-04T13:28:10.124Z,18.63
2019-01-04T13:30:36.247Z,15.27
2019-01-04T13:33:02.291Z,17.57
2019-01-04T13:35:28.628Z,15.50
2019-01-04T13:37:54.682Z,15.97
2019-01-04T13:40:20.723Z,14.33
2019-01-04T13:42:46.771Z,14.67
2019-01-04T13:45:12.823Z,16.57
2019-01-04T13:47:38.859Z,19.57
2019-01-04T13:50:06.312Z,15.77
2019-01-04T13:52:32.386Z,14.73
2019-01-04T13:54:58.419Z,15.57
2019-01-04T13:57:24.471Z,16.83
2019-01-04T13:59:50.522Z,19.60
2019-01-04T14:02:16.555Z,21.00
2019-01-04T14:04:42.614Z,23.37
2019-01-04T14:07:08.656Z,21.90
2019-01-04T14:09:34.709Z,27.53
2019-01-04T14:12:00.771Z,26.70
2019-01-04T14:14:26.815Z,26.00
2019-01-04T14:16:53.163Z,24.33
2019-01-04T14:19:19.498Z,27.27
2019-01-04T14:21:45.927Z,27.93
2019-01-04T14:24:11.972Z,24.30
2019-01-04T14:26:38.029Z,29.70
2019-01-04T14:29:04.083Z,26.80
2019-01-04T14:31:30.437Z,24.47
2019-01-04T14:33:56.476Z,26.90
2019-01-04T14:36:22.543Z,27.20
2019-01-04T14:38:48.591Z,27.60
2019-01-04T14:41:14.648Z,31.93
2019-01-04T14:43:40.693Z,30.87
2019-01-04T14:46:06.739Z,31.13
2019-01-04T14:48:32.784Z,31.73
2019-01-04T14:50:59.335Z,34.63
2019-01-04T14:53:25.380Z,30.77
2019-01-04T14:55:51.431Z,35.57
2019-01-04T14:58:17.472Z,33.13
2019-01-04T15:00:43.837Z,34.43
2019-01-04T15:03:09.876Z,38.23
2019-01-04T15:05:35.924Z,34.13
2019-01-04T15:08:01.974Z,32.80
2019-01-04T15:10:28.335Z,44.10
2019-01-04T15:12:54.374Z,41.37
2019-01-04T15:15:20.791Z,41.30
2019-01-04T15:17:48.365Z,42.20
2019-01-04T15:20:14.583Z,41.60
2019-01-04T15:22:40.732Z,43.03
2019-01-04T15:25:06.768Z,40.67
2019-01-04T15:27:32.823Z,40.87
2019-01-04T15:29:58.858Z,41.70
2019-01-04T15:32:24.936Z,42.60
2019-01-04T15:34:50.972Z,44.23
2019-01-04T15:37:17.366Z,42.07
2019-01-04T15:39:43.409Z,39.77
2019-01-04T15:42:09.812Z,39.33
2019-01-04T15:44:35.852Z,42.67
2019-01-04T15:47:02.164Z,41.60
2019-01-04T15:49:28.303Z,39.90
2019-01-04T15:51:54.357Z,42.73
2019-01-04T15:54:20.396Z,36.77
2019-01-04T15:56:46.444Z,39.40
2019-01-04T15:59:12.489Z,38.60
2019-01-04T16:01:38.559Z,37.90
2019-01-04T16:04:04.591Z,39.90
2019-01-04T16:06:30.964Z,37.90
2019-01-04T16:08:57.025Z,40.73
2019-01-04T16:11:23.061Z,40.43
2019-01-04T16:13:49.114Z,38.83
2019-01-04T16:16:15.154Z,37.93
2019-01-04T16:18:41.530Z,36.63
2019-01-04T16:21:07.816Z,36.90
2019-01-04T16:23:34.148Z,39.37
2019-01-04T16:26:00.483Z,35.07
2019-01-04T16:28:26.809Z,35.47
2019-01-04T16:30:52.877Z,35.13
2019-01-04T16:33:18.923Z,35.43
2019-01-04T16:35:44.967Z,36.33
2019-01-04T16:38:11.027Z,32.77
2019-01-04T16:40:37.063Z,37.90
2019-01-04T16:43:03.116Z,35.83
2019-01-04T16:45:29.148Z,35.10
2019-01-04T16:47:57.121Z,33.10
2019-01-04T16:50:23.149Z,39.47
2019-01-04T16:52:49.445Z,34.17
2019-01-04T16:55:15.488Z,33.23
2019-01-04T16:57:41.543Z,34.87
2019-01-04T17:00:09.529Z,38.20
2019-01-04T17:02:35.575Z,35.50
2019-01-04T17:05:01.619Z,36.60
2019-01-04T17:07:28.057Z,36.93
2019-01-04T17:09:54.101Z,40.10
2019-01-04T17:12:20.139Z,39.40
2019-01-04T17:14:46.197Z,39.13
2019-01-04T17:17:12.231Z,40.40
2019-01-04T17:19:40.877Z,35.80
2019-01-04T17:22:06.338Z,37.70
2019-01-04T17:24:32.395Z,36.53
2019-01-04T17:26:58.439Z,33.87
2019-01-04T17:29:24.757Z,34.77
2019-01-04T17:31:50.819Z,37.10
2019-01-04T17:34:16.860Z,35.67
2019-01-04T17:36:43.175Z,37.40
2019-01-04T17:39:09.435Z,36.10
2019-01-04T17:41:35.795Z,34.73
2019-01-04T17:44:02.168Z,35.33
2019-01-04T17:46:28.561Z,33.37
2019-01-04T17:48:56.021Z,36.13
2019-01-04T17:51:22.082Z,33.53
2019-01-04T17:53:48.119Z,41.40
2019-01-04T17:56:14.500Z,37.07
2019-01-04T17:58:41.132Z,38.77
2019-01-04T18:01:07.189Z,33.27
2019-01-04T18:03:33.485Z,37.43
2019-01-04T18:05:59.551Z,31.03
2019-01-04T18:08:25.595Z,35.00
2019-01-04T18:10:51.636Z,32.60
2019-01-04T18:13:18.297Z,32.70
2019-01-04T18:15:44.335Z,31.50
2019-01-04T18:18:10.384Z,33.63
2019-01-04T18:20:36.775Z,34.77
2019-01-04T18:23:02.815Z,33.00
2019-01-04T18:25:28.856Z,32.80
2019-01-04T18:27:55.247Z,34.50
2019-01-04T18:30:21.287Z,38.63
2019-01-04T18:32:47.604Z,32.90
2019-01-04T18:35:13.679Z,37.80
2019-01-04T18:37:39.733Z,33.43
2019-01-04T18:40:07.924Z,34.57
2019-01-04T18:42:34.566Z,34.97
2019-01-04T18:45:00.604Z,30.67
2019-01-04T18:47:26.644Z,34.00
2019-01-04T18:49:53.243Z,34.00
2019-01-04T18:52:19.692Z,34.00
2019-01-04T18:54:45.715Z,32.50
2019-01-04T18:57:11.779Z,33.60
2019-01-04T18:59:37.819Z,32.77
2019-01-04T19:02:04.161Z,37.37
2019-01-04T19:04:30.217Z,30.77
2019-01-04T19:06:56.531Z,33.50
2019-01-04T19:09:22.868Z,31.03
2019-01-04T19:11:49.195Z,30.97
2019-01-04T19:14:15.232Z,31.10
2019-01-04T19:16:41.566Z,31.37
2019-01-04T19:19:07.695Z,35.57
2019-01-04T19:21:33.736Z,34.17
2019-01-04T19:23:59.776Z,30.73
2019-01-04T19:26:26.195Z,31.43
2019-01-04T19:28:52.232Z,32.77
2019-01-04T19:31:18.275Z,38.90
2019-01-04T19:33:44.325Z,37.43
2019-01-04T19:36:10.375Z,33.57
2019-01-04T19:38:36.437Z,34.67
2019-01-04T19:41:02.480Z,38.13
2019-01-04T19:43:28.520Z,32.00
2019-01-04T19:45:54.578Z,31.03
2019-01-04T19:48:20.620Z,30.30
2019-01-04T19:50:46.676Z,32.80
2019-01-04T19:53:12.719Z,31.77
2019-01-04T19:55:39.083Z,32.27
2019-01-04T19:58:05.484Z,32.60
2019-01-04T20:00:31.522Z,33.30
2019-01-04T20:02:57.871Z,32.07
2019-01-04T20:05:33.444Z,29.23
2019-01-04T20:08:25.418Z,29.07
2019-01-04T20:11:06.871Z,29.67
2019-01-04T20:14:27.922Z,31.23
2019-01-04T20:16:58.842Z,32.67
2019-01-04T20:19:32.859Z,29.60
2019-01-04T20:22:13.107Z,33.43
2019-01-04T20:24:44.092Z,31.13
2019-01-04T20:27:15.296Z,34.07
2019-01-04T20:29:49.128Z,31.13
2019-01-04T20:32:35.181Z,29.90
2019-01-04T20:35:06.271Z,31.70
2019-01-04T20:37:46.608Z,27.97
2019-01-04T20:40:23.572Z,27.77
2019-01-04T20:43:06.568Z,30.83
2019-01-04T20:45:46.689Z,29.10
2019-01-04T20:48:20.661Z,26.87
2019-01-04T20:51:05.253Z,29.97
2019-01-04T20:53:35.984Z,26.23
2019-01-04T20:56:03.948Z,28.87
2019-01-04T20:58:40.544Z,32.10
2019-01-04T21:01:17.087Z,26.87
2019-01-04T21:03:50.851Z,32.30
2019-01-04T21:06:21.579Z,29.93
2019-01-04T21:09:06.203Z,32.33
2019-01-04T21:11:34.172Z,35.37
2019-01-04T21:14:20.347Z,30.00
2019-01-04T21:16:48.589Z,31.47
2019-01-04T21:19:19.244Z,30.53
2019-01-04T21:22:03.879Z,32.20
2019-01-04T21:24:31.835Z,27.87
2019-01-04T21:27:12.023Z,26.57
2019-01-04T21:29:39.963Z,24.33
2019-01-04T21:32:07.903Z,33.63
2019-01-04T21:34:38.630Z,24.67
2019-01-04T21:37:15.140Z,28.07
2019-01-04T21:39:55.239Z,27.63
2019-01-04T21:42:29.147Z,23.30
2019-01-04T21:45:14.139Z,21.60
2019-01-04T21:47:44.668Z,28.13
2019-01-04T21:50:21.942Z,25.87
2019-01-04T21:52:52.640Z,27.10
2019-01-04T21:55:20.895Z,25.53
2019-01-04T21:57:51.804Z,28.63
2019-01-04T22:00:25.288Z,26.90
2019-01-04T22:03:10.196Z,25.83
2019-01-04T22:05:55.067Z,22.53
2019-01-04T22:08:28.795Z,25.50
2019-01-04T22:11:13.061Z,21.50
2019-01-04T22:13:41.020Z,24.23
2019-01-04T22:16:27.416Z,20.93
2019-01-04T22:18:56.109Z,24.00
2019-01-04T22:21:41.945Z,20.63
2019-01-04T22:24:12.667Z,24.60
2019-01-04T22:26:46.899Z,21.00
2019-01-04T22:29:27.207Z,21.20
2019-01-04T22:32:01.166Z,20.50
2019-01-04T22:34:35.397Z,22.87
2019-01-04T22:37:20.259Z,22.27
2019-01-04T22:39:57.437Z,23.53
2019-01-04T22:42:31.244Z,21.13
2019-01-04T22:45:02.592Z,17.80
2019-01-04T22:47:40.095Z,15.20
2019-01-04T22:50:20.989Z,20.27
2019-01-04T22:52:49.635Z,18.43
2019-01-04T22:55:33.955Z,17.90
2019-01-04T22:58:01.924Z,17.97
2019-01-04T23:00:45.225Z,15.63
2019-01-04T23:03:29.900Z,15.20
2019-01-04T23:05:57.843Z,16.73
2019-01-04T23:08:42.623Z,19.67
2019-01-04T23:11:27.155Z,17.37
2019-01-04T23:14:12.079Z,11.67
2019-01-04T23:16:56.871Z,16.43
2019-01-04T23:19:41.291Z,16.77
2019-01-04T23:22:29.618Z,10.93
2019-01-04T23:25:09.700Z,16.73
2019-01-04T23:27:40.760Z,14.70
2019-01-04T23:30:09.116Z,10.33
2019-01-04T23:32:46.059Z,14.30
2019-01-04T23:35:19.967Z,16.60
2019-01-04T23:38:04.803Z,14.00
2019-01-04T23:40:45.151Z,20.27
2019-01-04T23:43:30.421Z,13.60
2019-01-04T23:46:03.891Z,14.47
2019-01-04T23:48:49.197Z,13.00
2019-01-04T23:51:23.111Z,16.27
2019-01-04T23:53:51.051Z,12.37
2019-01-04T23:56:25.080Z,12.57
2019-01-04T23:58:59.067Z,11.80
